sensor_id;sensor_type;location;lat;lon;timestamp;P1;durP1;ratioP1;P2;durP2;ratioP2
45007;SDS011;30743;52.008;5.644;2022-11-20T00:01:09;10.15;;;5.80;;
45007;SDS011;30743;52.008;5.644;2022-11-20T00:03:35;11.13;;;5.93;;
45007;SDS011;30743;52.008;5.644;2022-11-20T00:06:01;10.25;;;6.00;;
45007;SDS011;30743;52.008;5.644;2022-11-20T00:08:29;9.50;;;5.38;;
45007;SDS011;30743;52.008;5.644;2022-11-20T00:10:54;11.73;;;5.70;;
45007;SDS011;30743;52.008;5.644;2022-11-20T00:13:20;10.73;;;6.07;;
45007;SDS011;30743;52.008;5.644;2022-11-20T00:15:45;11.18;;;6.30;;
45007;SDS011;30743;52.008;5.644;2022-11-20T00:18:11;9.65;;;5.72;;
45007;SDS011;30743;52.008;5.644;2022-11-20T00:20:36;10.85;;;5.97;;
45007;SDS011;30743;52.008;5.644;2022-11-20T00:23:02;10.20;;;5.88;;
45007;SDS011;30743;52.008;5.644;2022-11-20T00:25:27;9.60;;;5.45;;
45007;SDS011;30743;52.008;5.644;2022-11-20T00:27:53;10.93;;;6.35;;
45007;SDS011;30743;52.008;5.644;2022-11-20T00:30:18;8.90;;;5.65;;
45007;SDS011;30743;52.008;5.644;2022-11-20T00:32:44;9.57;;;5.63;;
45007;SDS011;30743;52.008;5.644;2022-11-20T00:35:09;9.55;;;5.55;;
45007;SDS011;30743;52.008;5.644;2022-11-20T00:37:35;9.77;;;5.47;;
45007;SDS011;30743;52.008;5.644;2022-11-20T00:40:00;9.30;;;5.60;;
45007;SDS011;30743;52.008;5.644;2022-11-20T00:42:26;10.38;;;6.00;;
45007;SDS011;30743;52.008;5.644;2022-11-20T00:44:51;8.90;;;5.82;;
45007;SDS011;30743;52.008;5.644;2022-11-20T00:47:17;10.02;;;5.63;;
45007;SDS011;30743;52.008;5.644;2022-11-20T00:49:42;10.95;;;5.60;;
45007;SDS011;30743;52.008;5.644;2022-11-20T00:52:08;10.38;;;6.03;;
45007;SDS011;30743;52.008;5.644;2022-11-20T00:54:34;9.73;;;5.75;;
45007;SDS011;30743;52.008;5.644;2022-11-20T00:56:59;9.52;;;5.75;;
45007;SDS011;30743;52.008;5.644;2022-11-20T00:59:25;11.43;;;6.78;;
45007;SDS011;30743;52.008;5.644;2022-11-20T01:01:50;13.63;;;6.80;;
45007;SDS011;30743;52.008;5.644;2022-11-20T01:04:16;11.40;;;6.28;;
45007;SDS011;30743;52.008;5.644;2022-11-20T01:06:41;11.20;;;6.13;;
45007;SDS011;30743;52.008;5.644;2022-11-20T01:09:11;8.02;;;5.10;;
45007;SDS011;30743;52.008;5.644;2022-11-20T01:11:39;9.20;;;5.00;;
45007;SDS011;30743;52.008;5.644;2022-11-20T01:14:09;10.07;;;6.13;;
45007;SDS011;30743;52.008;5.644;2022-11-20T01:16:37;9.80;;;5.97;;
45007;SDS011;30743;52.008;5.644;2022-11-20T01:19:05;12.15;;;6.78;;
45007;SDS011;30743;52.008;5.644;2022-11-20T01:21:34;10.07;;;6.15;;
45007;SDS011;30743;52.008;5.644;2022-11-20T01:24:01;9.82;;;6.22;;
45007;SDS011;30743;52.008;5.644;2022-11-20T01:26:28;9.98;;;6.25;;
45007;SDS011;30743;52.008;5.644;2022-11-20T01:28:56;13.77;;;6.90;;
45007;SDS011;30743;52.008;5.644;2022-11-20T01:31:23;10.70;;;6.43;;
45007;SDS011;30743;52.008;5.644;2022-11-20T01:33:54;10.45;;;6.55;;
45007;SDS011;30743;52.008;5.644;2022-11-20T01:36:22;12.63;;;6.55;;
45007;SDS011;30743;52.008;5.644;2022-11-20T01:38:52;12.43;;;6.43;;
45007;SDS011;30743;52.008;5.644;2022-11-20T01:41:26;11.73;;;6.70;;
45007;SDS011;30743;52.008;5.644;2022-11-20T01:44:12;11.25;;;6.38;;
45007;SDS011;30743;52.008;5.644;2022-11-20T01:46:40;12.60;;;6.10;;
45007;SDS011;30743;52.008;5.644;2022-11-20T01:52:20;11.23;;;5.93;;
45007;SDS011;30743;52.008;5.644;2022-11-20T01:54:54;11.65;;;6.32;;
45007;SDS011;30743;52.008;5.644;2022-11-20T01:57:25;10.68;;;6.28;;
45007;SDS011;30743;52.008;5.644;2022-11-20T02:00:00;11.43;;;6.78;;
45007;SDS011;30743;52.008;5.644;2022-11-20T02:02:35;15.52;;;7.30;;
45007;SDS011;30743;52.008;5.644;2022-11-20T02:05:04;13.82;;;6.88;;
45007;SDS011;30743;52.008;5.644;2022-11-20T02:07:54;10.90;;;6.22;;
45007;SDS011;30743;52.008;5.644;2022-11-20T02:10:22;12.23;;;6.47;;
45007;SDS011;30743;52.008;5.644;2022-11-20T02:12:47;11.10;;;6.55;;
45007;SDS011;30743;52.008;5.644;2022-11-20T02:15:32;13.15;;;6.85;;
45007;SDS011;30743;52.008;5.644;2022-11-20T02:17:58;12.40;;;7.22;;
45007;SDS011;30743;52.008;5.644;2022-11-20T02:20:23;12.48;;;6.35;;
45007;SDS011;30743;52.008;5.644;2022-11-20T02:22:54;11.48;;;6.28;;
45007;SDS011;30743;52.008;5.644;2022-11-20T02:25:50;10.82;;;6.90;;
45007;SDS011;30743;52.008;5.644;2022-11-20T02:28:17;11.98;;;6.97;;
45007;SDS011;30743;52.008;5.644;2022-11-20T02:30:43;16.02;;;8.80;;
45007;SDS011;30743;52.008;5.644;2022-11-20T02:33:09;11.40;;;6.10;;
45007;SDS011;30743;52.008;5.644;2022-11-20T02:38:00;12.88;;;6.13;;
45007;SDS011;30743;52.008;5.644;2022-11-20T02:40:27;11.48;;;7.00;;
45007;SDS011;30743;52.008;5.644;2022-11-20T02:42:54;12.32;;;6.80;;
45007;SDS011;30743;52.008;5.644;2022-11-20T02:45:20;12.05;;;7.07;;
45007;SDS011;30743;52.008;5.644;2022-11-20T02:47:46;10.52;;;6.35;;
45007;SDS011;30743;52.008;5.644;2022-11-20T02:50:11;12.32;;;6.95;;
45007;SDS011;30743;52.008;5.644;2022-11-20T02:52:37;10.73;;;6.70;;
45007;SDS011;30743;52.008;5.644;2022-11-20T02:55:02;11.18;;;6.22;;
45007;SDS011;30743;52.008;5.644;2022-11-20T02:57:28;11.95;;;6.38;;
45007;SDS011;30743;52.008;5.644;2022-11-20T02:59:54;13.32;;;6.85;;
45007;SDS011;30743;52.008;5.644;2022-11-20T03:02:19;11.18;;;6.50;;
45007;SDS011;30743;52.008;5.644;2022-11-20T03:04:45;13.55;;;6.63;;
45007;SDS011;30743;52.008;5.644;2022-11-20T03:07:11;12.63;;;6.40;;
45007;SDS011;30743;52.008;5.644;2022-11-20T03:09:36;10.77;;;6.00;;
45007;SDS011;30743;52.008;5.644;2022-11-20T03:12:02;11.13;;;6.25;;
45007;SDS011;30743;52.008;5.644;2022-11-20T03:14:27;12.30;;;6.95;;
45007;SDS011;30743;52.008;5.644;2022-11-20T03:16:53;12.75;;;6.95;;
45007;SDS011;30743;52.008;5.644;2022-11-20T03:19:18;11.43;;;6.43;;
45007;SDS011;30743;52.008;5.644;2022-11-20T03:21:44;13.65;;;6.80;;
45007;SDS011;30743;52.008;5.644;2022-11-20T03:24:09;12.68;;;7.18;;
45007;SDS011;30743;52.008;5.644;2022-11-20T03:26:35;13.55;;;7.20;;
45007;SDS011;30743;52.008;5.644;2022-11-20T03:29:01;12.50;;;6.72;;
45007;SDS011;30743;52.008;5.644;2022-11-20T03:31:33;11.63;;;7.20;;
45007;SDS011;30743;52.008;5.644;2022-11-20T03:34:01;13.20;;;7.45;;
45007;SDS011;30743;52.008;5.644;2022-11-20T03:36:27;13.63;;;7.93;;
45007;SDS011;30743;52.008;5.644;2022-11-20T03:38:54;15.38;;;8.40;;
45007;SDS011;30743;52.008;5.644;2022-11-20T03:41:21;17.63;;;8.05;;
45007;SDS011;30743;52.008;5.644;2022-11-20T03:43:49;16.30;;;7.68;;
45007;SDS011;30743;52.008;5.644;2022-11-20T03:46:20;12.18;;;6.93;;
45007;SDS011;30743;52.008;5.644;2022-11-20T03:48:46;15.13;;;8.10;;
45007;SDS011;30743;52.008;5.644;2022-11-20T03:51:13;15.02;;;8.35;;
45007;SDS011;30743;52.008;5.644;2022-11-20T03:53:40;14.02;;;7.38;;
45007;SDS011;30743;52.008;5.644;2022-11-20T03:56:07;16.30;;;7.40;;
45007;SDS011;30743;52.008;5.644;2022-11-20T03:58:34;12.48;;;7.20;;
45007;SDS011;30743;52.008;5.644;2022-11-20T04:01:16;12.88;;;7.07;;
45007;SDS011;30743;52.008;5.644;2022-11-20T04:03:44;13.52;;;7.55;;
45007;SDS011;30743;52.008;5.644;2022-11-20T04:06:27;12.48;;;6.68;;
45007;SDS011;30743;52.008;5.644;2022-11-20T04:08:55;13.05;;;7.15;;
45007;SDS011;30743;52.008;5.644;2022-11-20T04:11:22;14.45;;;7.55;;
45007;SDS011;30743;52.008;5.644;2022-11-20T04:13:57;17.90;;;7.97;;
45007;SDS011;30743;52.008;5.644;2022-11-20T04:16:24;14.18;;;8.52;;
45007;SDS011;30743;52.008;5.644;2022-11-20T04:18:54;14.63;;;8.50;;
45007;SDS011;30743;52.008;5.644;2022-11-20T04:21:21;15.80;;;8.40;;
45007;SDS011;30743;52.008;5.644;2022-11-20T04:23:47;15.27;;;7.78;;
45007;SDS011;30743;52.008;5.644;2022-11-20T04:26:12;16.02;;;8.02;;
45007;SDS011;30743;52.008;5.644;2022-11-20T04:28:38;15.50;;;7.25;;
45007;SDS011;30743;52.008;5.644;2022-11-20T04:31:14;14.35;;;7.68;;
45007;SDS011;30743;52.008;5.644;2022-11-20T04:33:42;13.88;;;7.65;;
45007;SDS011;30743;52.008;5.644;2022-11-20T04:36:12;16.92;;;7.78;;
45007;SDS011;30743;52.008;5.644;2022-11-20T04:38:57;15.35;;;7.63;;
45007;SDS011;30743;52.008;5.644;2022-11-20T04:41:26;12.45;;;6.93;;
45007;SDS011;30743;52.008;5.644;2022-11-20T04:44:02;11.75;;;7.07;;
45007;SDS011;30743;52.008;5.644;2022-11-20T04:46:29;15.02;;;6.93;;
45007;SDS011;30743;52.008;5.644;2022-11-20T04:48:56;15.32;;;7.13;;
45007;SDS011;30743;52.008;5.644;2022-11-20T04:51:22;12.02;;;6.75;;
45007;SDS011;30743;52.008;5.644;2022-11-20T04:53:47;13.25;;;6.53;;
45007;SDS011;30743;52.008;5.644;2022-11-20T04:56:13;13.45;;;6.63;;
45007;SDS011;30743;52.008;5.644;2022-11-20T04:58:39;9.88;;;5.68;;
45007;SDS011;30743;52.008;5.644;2022-11-20T05:03:31;11.30;;;5.95;;
45007;SDS011;30743;52.008;5.644;2022-11-20T05:06:00;11.55;;;6.43;;
45007;SDS011;30743;52.008;5.644;2022-11-20T05:08:29;9.60;;;5.68;;
45007;SDS011;30743;52.008;5.644;2022-11-20T05:11:08;10.45;;;5.85;;
45007;SDS011;30743;52.008;5.644;2022-11-20T05:13:35;12.18;;;5.65;;
45007;SDS011;30743;52.008;5.644;2022-11-20T05:16:02;10.77;;;5.78;;
45007;SDS011;30743;52.008;5.644;2022-11-20T05:18:33;10.38;;;5.85;;
45007;SDS011;30743;52.008;5.644;2022-11-20T05:20:59;12.52;;;6.03;;
45007;SDS011;30743;52.008;5.644;2022-11-20T05:23:26;11.65;;;6.13;;
45007;SDS011;30743;52.008;5.644;2022-11-20T05:25:53;11.63;;;6.03;;
45007;SDS011;30743;52.008;5.644;2022-11-20T05:28:19;9.52;;;5.63;;
45007;SDS011;30743;52.008;5.644;2022-11-20T05:30:45;8.75;;;5.00;;
45007;SDS011;30743;52.008;5.644;2022-11-20T05:33:11;11.73;;;6.35;;
45007;SDS011;30743;52.008;5.644;2022-11-20T05:35:36;11.43;;;6.05;;
45007;SDS011;30743;52.008;5.644;2022-11-20T05:38:02;9.57;;;5.57;;
45007;SDS011;30743;52.008;5.644;2022-11-20T05:40:27;10.27;;;5.70;;
45007;SDS011;30743;52.008;5.644;2022-11-20T05:42:53;10.60;;;5.95;;
45007;SDS011;30743;52.008;5.644;2022-11-20T05:45:18;15.02;;;6.13;;
45007;SDS011;30743;52.008;5.644;2022-11-20T05:47:44;11.45;;;6.70;;
45007;SDS011;30743;52.008;5.644;2022-11-20T05:50:09;10.88;;;5.75;;
45007;SDS011;30743;52.008;5.644;2022-11-20T05:52:35;9.30;;;5.18;;
45007;SDS011;30743;52.008;5.644;2022-11-20T05:55:00;9.82;;;5.47;;
45007;SDS011;30743;52.008;5.644;2022-11-20T05:57:26;9.95;;;5.55;;
45007;SDS011;30743;52.008;5.644;2022-11-20T05:59:52;11.45;;;5.65;;
45007;SDS011;30743;52.008;5.644;2022-11-20T06:02:17;11.65;;;5.72;;
45007;SDS011;30743;52.008;5.644;2022-11-20T06:04:43;11.07;;;5.68;;
45007;SDS011;30743;52.008;5.644;2022-11-20T06:07:08;10.23;;;5.75;;
45007;SDS011;30743;52.008;5.644;2022-11-20T06:09:34;8.88;;;5.18;;
45007;SDS011;30743;52.008;5.644;2022-11-20T06:11:59;10.45;;;5.45;;
45007;SDS011;30743;52.008;5.644;2022-11-20T06:14:25;12.52;;;5.75;;
45007;SDS011;30743;52.008;5.644;2022-11-20T06:16:50;9.70;;;5.30;;
45007;SDS011;30743;52.008;5.644;2022-11-20T06:19:16;10.75;;;5.88;;
45007;SDS011;30743;52.008;5.644;2022-11-20T06:21:41;10.77;;;6.03;;
45007;SDS011;30743;52.008;5.644;2022-11-20T06:24:08;11.13;;;5.75;;
45007;SDS011;30743;52.008;5.644;2022-11-20T06:26:34;11.73;;;5.70;;
45007;SDS011;30743;52.008;5.644;2022-11-20T06:29:00;9.45;;;5.30;;
45007;SDS011;30743;52.008;5.644;2022-11-20T06:31:25;11.80;;;5.47;;
45007;SDS011;30743;52.008;5.644;2022-11-20T06:33:51;13.43;;;5.72;;
45007;SDS011;30743;52.008;5.644;2022-11-20T06:36:18;11.60;;;6.28;;
45007;SDS011;30743;52.008;5.644;2022-11-20T06:38:45;10.13;;;5.82;;
45007;SDS011;30743;52.008;5.644;2022-11-20T06:41:12;11.90;;;6.15;;
45007;SDS011;30743;52.008;5.644;2022-11-20T06:43:39;12.55;;;6.10;;
45007;SDS011;30743;52.008;5.644;2022-11-20T06:46:05;13.02;;;6.00;;
45007;SDS011;30743;52.008;5.644;2022-11-20T06:48:31;8.65;;;5.10;;
45007;SDS011;30743;52.008;5.644;2022-11-20T06:50:56;11.65;;;6.05;;
45007;SDS011;30743;52.008;5.644;2022-11-20T06:53:23;10.52;;;5.97;;
45007;SDS011;30743;52.008;5.644;2022-11-20T06:55:49;11.10;;;6.03;;
45007;SDS011;30743;52.008;5.644;2022-11-20T06:58:16;12.02;;;5.60;;
45007;SDS011;30743;52.008;5.644;2022-11-20T07:00:42;10.18;;;5.82;;
45007;SDS011;30743;52.008;5.644;2022-11-20T07:03:09;10.60;;;6.20;;
45007;SDS011;30743;52.008;5.644;2022-11-20T07:05:35;29.38;;;6.57;;
45007;SDS011;30743;52.008;5.644;2022-11-20T07:08:02;11.68;;;6.43;;
45007;SDS011;30743;52.008;5.644;2022-11-20T07:10:28;10.82;;;6.25;;
45007;SDS011;30743;52.008;5.644;2022-11-20T07:12:53;9.27;;;5.93;;
45007;SDS011;30743;52.008;5.644;2022-11-20T07:15:19;11.88;;;6.32;;
45007;SDS011;30743;52.008;5.644;2022-11-20T07:17:46;11.52;;;6.45;;
45007;SDS011;30743;52.008;5.644;2022-11-20T07:20:12;12.50;;;6.72;;
45007;SDS011;30743;52.008;5.644;2022-11-20T07:22:38;10.38;;;6.70;;
45007;SDS011;30743;52.008;5.644;2022-11-20T07:25:04;11.98;;;7.13;;
45007;SDS011;30743;52.008;5.644;2022-11-20T07:27:30;13.68;;;7.30;;
45007;SDS011;30743;52.008;5.644;2022-11-20T07:29:55;10.88;;;6.88;;
45007;SDS011;30743;52.008;5.644;2022-11-20T07:32:21;11.40;;;6.63;;
45007;SDS011;30743;52.008;5.644;2022-11-20T07:34:47;11.10;;;6.38;;
45007;SDS011;30743;52.008;5.644;2022-11-20T07:37:13;10.80;;;7.03;;
45007;SDS011;30743;52.008;5.644;2022-11-20T07:39:39;11.65;;;7.40;;
45007;SDS011;30743;52.008;5.644;2022-11-20T07:42:05;10.27;;;6.20;;
45007;SDS011;30743;52.008;5.644;2022-11-20T07:44:31;12.00;;;6.25;;
45007;SDS011;30743;52.008;5.644;2022-11-20T07:46:57;13.05;;;7.05;;
45007;SDS011;30743;52.008;5.644;2022-11-20T07:49:22;9.73;;;6.68;;
45007;SDS011;30743;52.008;5.644;2022-11-20T07:51:50;11.05;;;7.03;;
45007;SDS011;30743;52.008;5.644;2022-11-20T07:54:16;10.88;;;6.13;;
45007;SDS011;30743;52.008;5.644;2022-11-20T07:56:42;9.43;;;6.45;;
45007;SDS011;30743;52.008;5.644;2022-11-20T07:59:07;8.80;;;5.82;;
45007;SDS011;30743;52.008;5.644;2022-11-20T08:01:32;11.60;;;7.32;;
45007;SDS011;30743;52.008;5.644;2022-11-20T08:03:58;11.10;;;7.00;;
45007;SDS011;30743;52.008;5.644;2022-11-20T08:06:23;10.30;;;6.72;;
45007;SDS011;30743;52.008;5.644;2022-11-20T08:08:49;12.30;;;7.15;;
45007;SDS011;30743;52.008;5.644;2022-11-20T08:11:15;11.70;;;7.32;;
45007;SDS011;30743;52.008;5.644;2022-11-20T08:13:59;9.80;;;6.65;;
45007;SDS011;30743;52.008;5.644;2022-11-20T08:16:40;11.77;;;6.43;;
45007;SDS011;30743;52.008;5.644;2022-11-20T08:19:10;11.65;;;7.32;;
45007;SDS011;30743;52.008;5.644;2022-11-20T08:21:36;12.27;;;7.00;;
45007;SDS011;30743;52.008;5.644;2022-11-20T08:24:01;11.25;;;7.20;;
45007;SDS011;30743;52.008;5.644;2022-11-20T08:26:27;13.90;;;7.35;;
45007;SDS011;30743;52.008;5.644;2022-11-20T08:28:54;14.80;;;7.85;;
45007;SDS011;30743;52.008;5.644;2022-11-20T08:31:21;15.55;;;8.45;;
45007;SDS011;30743;52.008;5.644;2022-11-20T08:33:47;13.00;;;8.32;;
45007;SDS011;30743;52.008;5.644;2022-11-20T08:36:12;14.27;;;8.30;;
45007;SDS011;30743;52.008;5.644;2022-11-20T08:38:38;11.82;;;8.23;;
45007;SDS011;30743;52.008;5.644;2022-11-20T08:41:04;13.38;;;8.35;;
45007;SDS011;30743;52.008;5.644;2022-11-20T08:43:49;15.25;;;8.95;;
45007;SDS011;30743;52.008;5.644;2022-11-20T08:46:15;17.80;;;8.55;;
45007;SDS011;30743;52.008;5.644;2022-11-20T08:48:41;15.45;;;8.48;;
45007;SDS011;30743;52.008;5.644;2022-11-20T08:51:06;18.20;;;9.63;;
45007;SDS011;30743;52.008;5.644;2022-11-20T08:53:32;14.45;;;9.30;;
45007;SDS011;30743;52.008;5.644;2022-11-20T08:55:58;13.43;;;8.85;;
45007;SDS011;30743;52.008;5.644;2022-11-20T08:58:24;13.20;;;8.32;;
45007;SDS011;30743;52.008;5.644;2022-11-20T09:00:50;14.88;;;9.05;;
45007;SDS011;30743;52.008;5.644;2022-11-20T09:03:15;14.77;;;9.68;;
45007;SDS011;30743;52.008;5.644;2022-11-20T09:05:40;15.35;;;9.82;;
45007;SDS011;30743;52.008;5.644;2022-11-20T09:08:07;14.82;;;9.43;;
45007;SDS011;30743;52.008;5.644;2022-11-20T09:10:33;17.50;;;9.07;;
45007;SDS011;30743;52.008;5.644;2022-11-20T09:12:58;14.35;;;9.38;;
45007;SDS011;30743;52.008;5.644;2022-11-20T09:15:24;15.85;;;9.68;;
45007;SDS011;30743;52.008;5.644;2022-11-20T09:17:54;15.80;;;9.15;;
45007;SDS011;30743;52.008;5.644;2022-11-20T09:20:27;14.55;;;8.77;;
45007;SDS011;30743;52.008;5.644;2022-11-20T09:22:54;15.55;;;9.48;;
45007;SDS011;30743;52.008;5.644;2022-11-20T09:25:20;18.20;;;9.35;;
45007;SDS011;30743;52.008;5.644;2022-11-20T09:27:46;18.13;;;10.25;;
45007;SDS011;30743;52.008;5.644;2022-11-20T09:30:13;17.90;;;10.82;;
45007;SDS011;30743;52.008;5.644;2022-11-20T09:32:39;16.48;;;10.77;;
45007;SDS011;30743;52.008;5.644;2022-11-20T09:35:05;16.55;;;10.68;;
45007;SDS011;30743;52.008;5.644;2022-11-20T09:37:31;17.52;;;10.73;;
45007;SDS011;30743;52.008;5.644;2022-11-20T09:39:56;17.52;;;11.20;;
45007;SDS011;30743;52.008;5.644;2022-11-20T09:45:02;15.50;;;10.23;;
45007;SDS011;30743;52.008;5.644;2022-11-20T09:47:58;16.38;;;9.82;;
45007;SDS011;30743;52.008;5.644;2022-11-20T09:50:29;16.80;;;10.35;;
45007;SDS011;30743;52.008;5.644;2022-11-20T09:53:16;20.48;;;10.02;;
45007;SDS011;30743;52.008;5.644;2022-11-20T09:56:06;17.05;;;10.18;;
45007;SDS011;30743;52.008;5.644;2022-11-20T09:58:35;15.85;;;10.35;;
45007;SDS011;30743;52.008;5.644;2022-11-20T10:01:09;16.48;;;11.43;;
45007;SDS011;30743;52.008;5.644;2022-11-20T10:06:10;16.17;;;10.48;;
45007;SDS011;30743;52.008;5.644;2022-11-20T10:08:55;18.00;;;11.38;;
45007;SDS011;30743;52.008;5.644;2022-11-20T10:14:15;17.85;;;11.07;;
45007;SDS011;30743;52.008;5.644;2022-11-20T10:19:44;21.60;;;11.15;;
45007;SDS011;30743;52.008;5.644;2022-11-20T10:27:59;18.25;;;11.25;;
45007;SDS011;30743;52.008;5.644;2022-11-20T10:30:43;19.35;;;11.48;;
45007;SDS011;30743;52.008;5.644;2022-11-20T10:33:18;16.23;;;11.27;;
45007;SDS011;30743;52.008;5.644;2022-11-20T10:35:55;16.40;;;10.45;;
45007;SDS011;30743;52.008;5.644;2022-11-20T10:38:43;15.88;;;10.73;;
45007;SDS011;30743;52.008;5.644;2022-11-20T10:41:26;16.05;;;10.30;;
45007;SDS011;30743;52.008;5.644;2022-11-20T10:47:12;17.55;;;11.27;;
45007;SDS011;30743;52.008;5.644;2022-11-20T10:49:40;15.68;;;10.60;;
45007;SDS011;30743;52.008;5.644;2022-11-20T10:58:18;18.83;;;12.25;;
45007;SDS011;30743;52.008;5.644;2022-11-20T11:00:38;18.05;;;11.52;;
45007;SDS011;30743;52.008;5.644;2022-11-20T11:03:07;21.90;;;13.27;;
45007;SDS011;30743;52.008;5.644;2022-11-20T11:05:50;20.73;;;12.43;;
45007;SDS011;30743;52.008;5.644;2022-11-20T11:08:23;18.70;;;11.18;;
45007;SDS011;30743;52.008;5.644;2022-11-20T11:13:28;18.60;;;11.32;;
45007;SDS011;30743;52.008;5.644;2022-11-20T11:15:54;19.85;;;12.18;;
45007;SDS011;30743;52.008;5.644;2022-11-20T11:18:27;20.15;;;12.70;;
45007;SDS011;30743;52.008;5.644;2022-11-20T11:20:55;21.08;;;12.38;;
45007;SDS011;30743;52.008;5.644;2022-11-20T11:25:59;19.45;;;12.77;;
45007;SDS011;30743;52.008;5.644;2022-11-20T11:28:26;19.05;;;12.63;;
45007;SDS011;30743;52.008;5.644;2022-11-20T11:30:53;18.77;;;12.45;;
45007;SDS011;30743;52.008;5.644;2022-11-20T11:33:20;20.00;;;12.23;;
45007;SDS011;30743;52.008;5.644;2022-11-20T11:35:54;20.50;;;12.55;;
45007;SDS011;30743;52.008;5.644;2022-11-20T11:38:34;20.45;;;12.77;;
45007;SDS011;30743;52.008;5.644;2022-11-20T11:41:02;21.08;;;13.13;;
45007;SDS011;30743;52.008;5.644;2022-11-20T11:43:30;24.98;;;13.93;;
45007;SDS011;30743;52.008;5.644;2022-11-20T11:48:55;21.75;;;12.30;;
45007;SDS011;30743;52.008;5.644;2022-11-20T11:56:54;20.80;;;13.45;;
45007;SDS011;30743;52.008;5.644;2022-11-20T11:59:26;23.15;;;13.40;;
45007;SDS011;30743;52.008;5.644;2022-11-20T12:01:59;20.42;;;12.95;;
45007;SDS011;30743;52.008;5.644;2022-11-20T12:04:37;23.48;;;14.13;;
45007;SDS011;30743;52.008;5.644;2022-11-20T12:07:15;23.00;;;14.38;;
45007;SDS011;30743;52.008;5.644;2022-11-20T12:09:43;19.75;;;13.70;;
45007;SDS011;30743;52.008;5.644;2022-11-20T12:12:18;22.98;;;14.15;;
45007;SDS011;30743;52.008;5.644;2022-11-20T12:14:47;23.08;;;13.63;;
45007;SDS011;30743;52.008;5.644;2022-11-20T12:17:15;19.95;;;12.77;;
45007;SDS011;30743;52.008;5.644;2022-11-20T12:19:42;20.42;;;13.23;;
45007;SDS011;30743;52.008;5.644;2022-11-20T12:22:21;21.33;;;13.27;;
45007;SDS011;30743;52.008;5.644;2022-11-20T12:30:33;21.17;;;13.10;;
45007;SDS011;30743;52.008;5.644;2022-11-20T12:33:25;18.48;;;12.38;;
45007;SDS011;30743;52.008;5.644;2022-11-20T12:36:28;20.20;;;12.68;;
45007;SDS011;30743;52.008;5.644;2022-11-20T12:39:35;21.00;;;12.95;;
45007;SDS011;30743;52.008;5.644;2022-11-20T12:42:17;21.00;;;12.77;;
45007;SDS011;30743;52.008;5.644;2022-11-20T12:48:18;20.05;;;12.90;;
45007;SDS011;30743;52.008;5.644;2022-11-20T12:51:14;19.17;;;12.93;;
45007;SDS011;30743;52.008;5.644;2022-11-20T12:57:05;19.95;;;12.30;;
45007;SDS011;30743;52.008;5.644;2022-11-20T13:06:03;19.77;;;12.20;;
45007;SDS011;30743;52.008;5.644;2022-11-20T13:08:37;20.13;;;12.40;;
45007;SDS011;30743;52.008;5.644;2022-11-20T13:16:25;20.30;;;12.63;;
45007;SDS011;30743;52.008;5.644;2022-11-20T13:19:11;18.75;;;12.18;;
45007;SDS011;30743;52.008;5.644;2022-11-20T13:27:04;20.38;;;13.00;;
45007;SDS011;30743;52.008;5.644;2022-11-20T13:29:29;19.20;;;12.38;;
45007;SDS011;30743;52.008;5.644;2022-11-20T13:32:03;21.02;;;13.15;;
45007;SDS011;30743;52.008;5.644;2022-11-20T13:34:31;21.30;;;13.45;;
45007;SDS011;30743;52.008;5.644;2022-11-20T13:36:58;21.23;;;13.43;;
45007;SDS011;30743;52.008;5.644;2022-11-20T13:39:35;19.73;;;13.10;;
45007;SDS011;30743;52.008;5.644;2022-11-20T13:42:54;23.30;;;13.30;;
45007;SDS011;30743;52.008;5.644;2022-11-20T13:45:00;23.77;;;13.23;;
45007;SDS011;30743;52.008;5.644;2022-11-20T13:47:27;21.85;;;14.07;;
45007;SDS011;30743;52.008;5.644;2022-11-20T13:49:53;24.48;;;13.82;;
45007;SDS011;30743;52.008;5.644;2022-11-20T13:57:52;19.77;;;13.88;;
45007;SDS011;30743;52.008;5.644;2022-11-20T14:00:43;22.85;;;13.38;;
45007;SDS011;30743;52.008;5.644;2022-11-20T14:03:17;22.05;;;14.00;;
45007;SDS011;30743;52.008;5.644;2022-11-20T14:05:48;23.00;;;15.05;;
45007;SDS011;30743;52.008;5.644;2022-11-20T14:08:21;21.52;;;13.48;;
45007;SDS011;30743;52.008;5.644;2022-11-20T14:11:04;22.85;;;14.18;;
45007;SDS011;30743;52.008;5.644;2022-11-20T14:13:59;26.60;;;13.57;;
45007;SDS011;30743;52.008;5.644;2022-11-20T14:16:28;21.10;;;13.73;;
45007;SDS011;30743;52.008;5.644;2022-11-20T14:18:56;21.85;;;13.93;;
45007;SDS011;30743;52.008;5.644;2022-11-20T14:21:26;24.70;;;13.75;;
45007;SDS011;30743;52.008;5.644;2022-11-20T14:24:02;25.85;;;14.35;;
45007;SDS011;30743;52.008;5.644;2022-11-20T14:26:28;26.98;;;15.02;;
45007;SDS011;30743;52.008;5.644;2022-11-20T14:28:54;24.98;;;14.90;;
45007;SDS011;30743;52.008;5.644;2022-11-20T14:31:23;24.38;;;14.95;;
45007;SDS011;30743;52.008;5.644;2022-11-20T14:33:51;23.13;;;14.07;;
45007;SDS011;30743;52.008;5.644;2022-11-20T14:36:20;24.83;;;14.68;;
45007;SDS011;30743;52.008;5.644;2022-11-20T14:38:48;26.05;;;14.98;;
45007;SDS011;30743;52.008;5.644;2022-11-20T14:41:16;24.75;;;14.48;;
45007;SDS011;30743;52.008;5.644;2022-11-20T14:43:57;25.15;;;15.25;;
45007;SDS011;30743;52.008;5.644;2022-11-20T14:46:24;27.88;;;16.63;;
45007;SDS011;30743;52.008;5.644;2022-11-20T14:48:51;26.83;;;15.98;;
45007;SDS011;30743;52.008;5.644;2022-11-20T14:51:32;29.73;;;15.93;;
45007;SDS011;30743;52.008;5.644;2022-11-20T14:54:14;24.85;;;15.13;;
45007;SDS011;30743;52.008;5.644;2022-11-20T14:56:41;28.23;;;16.67;;
45007;SDS011;30743;52.008;5.644;2022-11-20T14:59:21;25.50;;;15.40;;
45007;SDS011;30743;52.008;5.644;2022-11-20T15:01:59;24.25;;;15.40;;
45007;SDS011;30743;52.008;5.644;2022-11-20T15:07:32;23.67;;;15.48;;
45007;SDS011;30743;52.008;5.644;2022-11-20T15:10:01;26.50;;;16.17;;
45007;SDS011;30743;52.008;5.644;2022-11-20T15:12:31;27.45;;;16.65;;
45007;SDS011;30743;52.008;5.644;2022-11-20T15:15:03;28.10;;;15.63;;
45007;SDS011;30743;52.008;5.644;2022-11-20T15:17:30;26.17;;;16.08;;
45007;SDS011;30743;52.008;5.644;2022-11-20T15:20:08;24.83;;;16.08;;
45007;SDS011;30743;52.008;5.644;2022-11-20T15:22:38;25.98;;;15.38;;
45007;SDS011;30743;52.008;5.644;2022-11-20T15:25:13;26.85;;;15.80;;
45007;SDS011;30743;52.008;5.644;2022-11-20T15:27:41;30.08;;;16.63;;
45007;SDS011;30743;52.008;5.644;2022-11-20T15:30:14;27.15;;;16.52;;
45007;SDS011;30743;52.008;5.644;2022-11-20T15:32:41;30.02;;;17.42;;
45007;SDS011;30743;52.008;5.644;2022-11-20T15:35:08;29.50;;;17.25;;
45007;SDS011;30743;52.008;5.644;2022-11-20T15:37:34;28.85;;;17.05;;
45007;SDS011;30743;52.008;5.644;2022-11-20T15:40:00;30.55;;;17.70;;
45007;SDS011;30743;52.008;5.644;2022-11-20T15:42:26;25.42;;;16.48;;
45007;SDS011;30743;52.008;5.644;2022-11-20T15:44:51;27.15;;;16.77;;
45007;SDS011;30743;52.008;5.644;2022-11-20T15:47:17;27.17;;;17.25;;
45007;SDS011;30743;52.008;5.644;2022-11-20T15:49:44;27.85;;;16.33;;
45007;SDS011;30743;52.008;5.644;2022-11-20T15:52:09;29.08;;;17.35;;
45007;SDS011;30743;52.008;5.644;2022-11-20T15:54:35;29.13;;;17.40;;
45007;SDS011;30743;52.008;5.644;2022-11-20T15:57:01;27.10;;;16.83;;
45007;SDS011;30743;52.008;5.644;2022-11-20T15:59:27;25.75;;;16.35;;
45007;SDS011;30743;52.008;5.644;2022-11-20T16:01:53;25.00;;;15.45;;
45007;SDS011;30743;52.008;5.644;2022-11-20T16:04:18;26.30;;;16.17;;
45007;SDS011;30743;52.008;5.644;2022-11-20T16:06:44;27.00;;;16.58;;
45007;SDS011;30743;52.008;5.644;2022-11-20T16:09:09;26.15;;;15.70;;